Observation data for Knox City on 03/12/2018      Previous  Date  Next       Current Mesonet Observations  Soil Data  Daily Summary Page  Observations in Plain Language
KKN1 120500Z 03007KT 07/M05 A3035 RMK A01 T00681045  RH  045%=      5-min Rain = 0
KKN1 120505Z 03007KT 07/M05 A3035 RMK A01 T00671045  RH  045%=      5-min Rain = 0
KKN1 120510Z 03007KT 07/M04 A3035 RMK A01 T00671044  RH  045%=      5-min Rain = 0
KKN1 120515Z 02007KT 07/M04 A3035 RMK A01 T00671044  RH  045%=      5-min Rain = 0
KKN1 120520Z 03007KT 07/M04 A3035 RMK A01 T00671043  RH  046%=      5-min Rain = 0
KKN1 120525Z 03008KT 06/M04 A3035 RMK A01 T00641043  RH  047%=      5-min Rain = 0
KKN1 120530Z 03008KT 06/M04 A3035 RMK A01 T00631042  RH  048%=      5-min Rain = 0
KKN1 120535Z 03008KT 06/M04 A3035 RMK A01 T00641041  RH  047%=      5-min Rain = 0
KKN1 120540Z 03008KT 06/M04 A3035 RMK A01 T00641041  RH  048%=      5-min Rain = 0
KKN1 120545Z 03008KT 06/M04 A3035 RMK A01 T00621040  RH  048%=      5-min Rain = 0
KKN1 120550Z 03008KT 06/M04 A3035 RMK A01 T00601040  RH  049%=      5-min Rain = 0
KKN1 120555Z 03007KT 06/M04 A3035 RMK A01 T00581040  RH  050%=      5-min Rain = 0
KKN1 120600Z 03006KT 06/M04 A3035 RMK A01 T00561040  RH  051%=      5-min Rain = 0
KKN1 120605Z 03006KT 05/M04 A3035 RMK A01 T00511040  RH  052%=      5-min Rain = 0
KKN1 120610Z 03005KT 05/M04 A3035 RMK A01 T00471041  RH  053%=      5-min Rain = 0
KKN1 120615Z 03005KT 04/M04 A3036 RMK A01 T00441041  RH  054%=      5-min Rain = 0
KKN1 120620Z 03005KT 04/M04 A3036 RMK A01 T00441040  RH  055%=      5-min Rain = 0
KKN1 120625Z 02006KT 04/M04 A3036 RMK A01 T00441041  RH  055%=      5-min Rain = 0
KKN1 120630Z 02006KT 04/M04 A3036 RMK A01 T00441041  RH  054%=      5-min Rain = 0
KKN1 120635Z 02006KT 05/M04 A3036 RMK A01 T00451041  RH  054%=      5-min Rain = 0
KKN1 120640Z 02006KT 05/M04 A3036 RMK A01 T00471040  RH  054%=      5-min Rain = 0
KKN1 120645Z 02005KT 05/M04 A3036 RMK A01 T00501039  RH  053%=      5-min Rain = 0
KKN1 120650Z 02005KT 05/M04 A3036 RMK A01 T00501039  RH  053%=      5-min Rain = 0
KKN1 120655Z 02004KT 05/M04 A3036 RMK A01 T00491039  RH  054%=      5-min Rain = 0
KKN1 120700Z 02005KT 05/M04 A3036 RMK A01 T00481039  RH  054%=      5-min Rain = 0
KKN1 120705Z 02006KT 05/M04 A3036 RMK A01 T00501038  RH  053%=      5-min Rain = 0
KKN1 120710Z 01004KT 05/M04 A3036 RMK A01 T00481040  RH  054%=      5-min Rain = 0
KKN1 120715Z 01002KT 04/M04 A3037 RMK A01 T00441040  RH  055%=      5-min Rain = 0
KKN1 120720Z 00001KT 04/M04 A3037 RMK A01 T00411041  RH  056%=      5-min Rain = 0
KKN1 120725Z 02001KT 04/M04 A3037 RMK A01 T00381041  RH  057%=      5-min Rain = 0
KKN1 120730Z 02000KT 04/M04 A3037 RMK A01 T00351043  RH  057%=      5-min Rain = 0
KKN1 120735Z 03001KT 04/M04 A3036 RMK A01 T00371041  RH  057%=      5-min Rain = 0
KKN1 120740Z 05004KT 04/M04 A3036 RMK A01 T00381039  RH  058%=      5-min Rain = 0
KKN1 120745Z 06003KT 04/M04 A3036 RMK A01 T00381039  RH  058%=      5-min Rain = 0
KKN1 120750Z 06004KT 04/M04 A3036 RMK A01 T00371039  RH  058%=      5-min Rain = 0
KKN1 120755Z 05005KT 04/M04 A3036 RMK A01 T00361038  RH  059%=      5-min Rain = 0
KKN1 120800Z 05005KT 04/M04 A3036 RMK A01 T00371037  RH  059%=      5-min Rain = 0
KKN1 120805Z 05005KT 04/M04 A3037 RMK A01 T00381036  RH  059%=      5-min Rain = 0
KKN1 120810Z 04005KT 04/M04 A3037 RMK A01 T00381036  RH  059%=      5-min Rain = 0
KKN1 120815Z 04004KT 04/M04 A3037 RMK A01 T00371037  RH  059%=      5-min Rain = 0
KKN1 120820Z 03004KT 04/M04 A3037 RMK A01 T00361038  RH  059%=      5-min Rain = 0
KKN1 120825Z 03003KT 03/M04 A3037 RMK A01 T00331040  RH  060%=      5-min Rain = 0
KKN1 120830Z 03003KT 03/M04 A3037 RMK A01 T00301040  RH  061%=      5-min Rain = 0
KKN1 120835Z 03002KT 03/M04 A3037 RMK A01 T00291039  RH  061%=      5-min Rain = 0
KKN1 120840Z 03002KT 03/M04 A3038 RMK A01 T00281039  RH  062%=      5-min Rain = 0
KKN1 120845Z 03002KT 03/M04 A3037 RMK A01 T00281039  RH  062%=      5-min Rain = 0
KKN1 120850Z 03003KT 03/M04 A3037 RMK A01 T00301037  RH  062%=      5-min Rain = 0
KKN1 120855Z 03004KT 03/M04 A3037 RMK A01 T00331037  RH  061%=      5-min Rain = 0
KKN1 120900Z 04004KT 03/M04 A3037 RMK A01 T00331038  RH  061%=      5-min Rain = 0
KKN1 120905Z 03005KT 03/M04 A3037 RMK A01 T00311038  RH  061%=      5-min Rain = 0
KKN1 120910Z 03005KT 03/M04 A3037 RMK A01 T00271040  RH  062%=      5-min Rain = 0
KKN1 120915Z 03005KT 02/M04 A3037 RMK A01 T00241039  RH  064%=      5-min Rain = 0
KKN1 120920Z 03005KT 03/M04 A3036 RMK A01 T00261039  RH  063%=      5-min Rain = 0
KKN1 120925Z 03005KT 03/M04 A3036 RMK A01 T00261038  RH  063%=      5-min Rain = 0
KKN1 120930Z 02005KT 03/M04 A3036 RMK A01 T00281037  RH  063%=      5-min Rain = 0
KKN1 120935Z 02004KT 03/M04 A3036 RMK A01 T00281037  RH  063%=      5-min Rain = 0
KKN1 120940Z 00002KT 03/M04 A3036 RMK A01 T00271036  RH  064%=      5-min Rain = 0
KKN1 120945Z 00000KT 02/M04 A3036 RMK A01 T00231041  RH  063%=      5-min Rain = 0
KKN1 120950Z 29001KT 02/M04 A3037 RMK A01 T00161043  RH  066%=      5-min Rain = 0
KKN1 120955Z 30002KT 02/M04 A3037 RMK A01 T00191040  RH  066%=      5-min Rain = 0
KKN1 121000Z 31002KT 02/M04 A3037 RMK A01 T00211039  RH  065%=      5-min Rain = 0
KKN1 121005Z 33003KT 02/M04 A3037 RMK A01 T00201039  RH  066%=      5-min Rain = 0
KKN1 121010Z 33002KT 02/M04 A3037 RMK A01 T00201038  RH  066%=      5-min Rain = 0
KKN1 121015Z 33003KT 02/M04 A3037 RMK A01 T00211038  RH  066%=      5-min Rain = 0
KKN1 121020Z 33003KT 02/M04 A3037 RMK A01 T00211038  RH  066%=      5-min Rain = 0
KKN1 121025Z 33003KT 02/M04 A3037 RMK A01 T00201039  RH  066%=      5-min Rain = 0
KKN1 121030Z 33004KT 02/M04 A3037 RMK A01 T00201039  RH  065%=      5-min Rain = 0
KKN1 121035Z 32003KT 02/M04 A3037 RMK A01 T00201039  RH  066%=      5-min Rain = 0
KKN1 121040Z 32003KT 02/M04 A3037 RMK A01 T00201039  RH  066%=      5-min Rain = 0
KKN1 121045Z 31003KT 02/M04 A3037 RMK A01 T00181040  RH  066%=      5-min Rain = 0
KKN1 121050Z 31003KT 02/M04 A3038 RMK A01 T00161040  RH  067%=      5-min Rain = 0
KKN1 121055Z 31004KT 02/M04 A3038 RMK A01 T00161040  RH  067%=      5-min Rain = 0
KKN1 121100Z 31004KT 02/M04 A3038 RMK A01 T00151040  RH  067%=      5-min Rain = 0
KKN1 121105Z 31004KT 01/M04 A3038 RMK A01 T00141041  RH  067%=      5-min Rain = 0
KKN1 121110Z 31004KT 01/M04 A3038 RMK A01 T00131041  RH  068%=      5-min Rain = 0
KKN1 121115Z 32003KT 01/M04 A3038 RMK A01 T00121042  RH  068%=      5-min Rain = 0
KKN1 121120Z 31003KT 01/M04 A3038 RMK A01 T00111042  RH  069%=      5-min Rain = 0
KKN1 121125Z 31003KT 01/M04 A3038 RMK A01 T00131040  RH  069%=      5-min Rain = 0
KKN1 121130Z 31003KT 01/M04 A3039 RMK A01 T00131040  RH  068%=      5-min Rain = 0
KKN1 121135Z 32002KT 01/M05 A3039 RMK A01 T00101045  RH  068%=      5-min Rain = 0
KKN1 121140Z 31002KT 01/M05 A3039 RMK A01 T00071046  RH  069%=      5-min Rain = 0
KKN1 121145Z 31002KT 01/M04 A3039 RMK A01 T00101041  RH  069%=      5-min Rain = 0
KKN1 121150Z 31002KT 01/M04 A3039 RMK A01 T00131039  RH  069%=      5-min Rain = 0
KKN1 121155Z 32003KT 02/M04 A3039 RMK A01 T00151038  RH  068%=      5-min Rain = 0
KKN1 121200Z 33003KT 02/M04 A3039 RMK A01 T00151039  RH  068%=      5-min Rain = 0
KKN1 121205Z 33003KT 02/M04 A3039 RMK A01 T00151039  RH  068%=      5-min Rain = 0
KKN1 121210Z 33003KT 01/M04 A3039 RMK A01 T00131040  RH  069%=      5-min Rain = 0
KKN1 121215Z 32002KT 01/M04 A3039 RMK A01 T00111040  RH  070%=      5-min Rain = 0
KKN1 121220Z 31002KT 01/M04 A304 RMK A01 T00121038  RH  070%=      5-min Rain = 0
KKN1 121225Z 28003KT 01/M04 A304 RMK A01 T00141037  RH  069%=      5-min Rain = 0
KKN1 121230Z 26004KT 01/M04 A304 RMK A01 T00121040  RH  069%=      5-min Rain = 0
KKN1 121235Z 27003KT 01/M04 A304 RMK A01 T00111042  RH  069%=      5-min Rain = 0
KKN1 121240Z 28003KT 01/M04 A304 RMK A01 T00111041  RH  069%=      5-min Rain = 0
KKN1 121245Z 29003KT 01/M04 A3041 RMK A01 T00111040  RH  069%=      5-min Rain = 0
KKN1 121250Z 31003KT 01/M04 A304 RMK A01 T00101042  RH  069%=      5-min Rain = 0
KKN1 121255Z 32003KT 01/M04 A3041 RMK A01 T00071044  RH  070%=      5-min Rain = 0
KKN1 121300Z 32002KT 00/M04 A3041 RMK A01 T00041044  RH  071%=      5-min Rain = 0
KKN1 121305Z 32002KT 00/M04 A3041 RMK A01 T00041042  RH  072%=      5-min Rain = 0
KKN1 121310Z 32002KT 01/M04 A3041 RMK A01 T00061041  RH  071%=      5-min Rain = 0
KKN1 121315Z 32001KT 01/M04 A3041 RMK A01 T00081040  RH  071%=      5-min Rain = 0
KKN1 121320Z 30000KT 01/M04 A3041 RMK A01 T00101039  RH  071%=      5-min Rain = 0
KKN1 121325Z 29001KT 01/M04 A3042 RMK A01 T00111036  RH  072%=      5-min Rain = 0
KKN1 121330Z 29001KT 01/M04 A3042 RMK A01 T00111038  RH  071%=      5-min Rain = 0
KKN1 121335Z 28002KT 01/M04 A3042 RMK A01 T00121037  RH  071%=      5-min Rain = 0
KKN1 121340Z 29001KT 02/M03 A3042 RMK A01 T00151033  RH  071%=      5-min Rain = 0
KKN1 121345Z 31001KT 02/M03 A3042 RMK A01 T00191031  RH  070%=      5-min Rain = 0
KKN1 121350Z 31002KT 02/M03 A3043 RMK A01 T00221030  RH  069%=      5-min Rain = 0
KKN1 121355Z 31001KT 02/M03 A3043 RMK A01 T00241030  RH  068%=      5-min Rain = 0
KKN1 121400Z 31003KT 03/M03 A3043 RMK A01 T00261031  RH  067%=      5-min Rain = 0
KKN1 121405Z 32003KT 03/M03 A3043 RMK A01 T00281030  RH  066%=      5-min Rain = 0
KKN1 121410Z 32004KT 03/M03 A3044 RMK A01 T00321030  RH  065%=      5-min Rain = 0
KKN1 121415Z 32004KT 03/M03 A3044 RMK A01 T00341029  RH  064%=      5-min Rain = 0
KKN1 121420Z 32004KT 04/M03 A3044 RMK A01 T00401028  RH  062%=      5-min Rain = 0
KKN1 121425Z 34005KT 05/M03 A3044 RMK A01 T00451027  RH  061%=      5-min Rain = 0
KKN1 121430Z 34007KT 05/M03 A3045 RMK A01 T00451027  RH  060%=      5-min Rain = 0
KKN1 121435Z 00005KT 05/M03 A3045 RMK A01 T00451026  RH  061%=      5-min Rain = 0
KKN1 121440Z 00005KT 05/M03 A3045 RMK A01 T00461025  RH  061%=      5-min Rain = 0
KKN1 121445Z 35004KT 05/M03 A3045 RMK A01 T00471025  RH  060%=      5-min Rain = 0
KKN1 121450Z 36006KT 05/M02 A3045 RMK A01 T00501024  RH  059%=      5-min Rain = 0
KKN1 121455Z 02004KT 06/M02 A3045 RMK A01 T00551023  RH  058%=      5-min Rain = 0
KKN1 121500Z 00004KT 06/M02 A3045 RMK A01 T00581023  RH  057%=      5-min Rain = 0
KKN1 121505Z 01003KT 06/M02 A3045 RMK A01 T00601023  RH  056%=      5-min Rain = 0
KKN1 121510Z 01004KT 06/M02 A3045 RMK A01 T00581024  RH  056%=      5-min Rain = 0
KKN1 121515Z 03006KT 06/M02 A3045 RMK A01 T00631022  RH  055%=      5-min Rain = 0
KKN1 121520Z 03005KT 06/M02 A3045 RMK A01 T00641022  RH  054%=      5-min Rain = 0
KKN1 121525Z 04005KT 06/M02 A3045 RMK A01 T00641023  RH  055%=      5-min Rain = 0
KKN1 121530Z 03006KT 07/M02 A3045 RMK A01 T00661022  RH  054%=      5-min Rain = 0
KKN1 121535Z 02005KT 07/M02 A3045 RMK A01 T00681022  RH  053%=      5-min Rain = 0
KKN1 121540Z 04005KT 07/M02 A3045 RMK A01 T00691023  RH  053%=      5-min Rain = 0
KKN1 121545Z 02003KT 07/M02 A3044 RMK A01 T00681022  RH  053%=      5-min Rain = 0
KKN1 121550Z 02004KT 07/M02 A3044 RMK A01 T00681024  RH  053%=      5-min Rain = 0
KKN1 121555Z 03004G9KT 07/M02 A3044 RMK A01 T00701023  RH  052%=      5-min Rain = 0
KKN1 121600Z 01004KT 08/M02 A3045 RMK A01 T00751023  RH  051%=      5-min Rain = 0
KKN1 121605Z 36004KT 07/M03 A3045 RMK A01 T00741025  RH  050%=      5-min Rain = 0
KKN1 121610Z 03001KT 08/M02 A3045 RMK A01 T00751024  RH  050%=      5-min Rain = 0
KKN1 121615Z 05003KT 08/M02 A3044 RMK A01 T00781023  RH  049%=      5-min Rain = 0
KKN1 121620Z 03004KT 08/M02 A3044 RMK A01 T00801023  RH  049%=      5-min Rain = 0
KKN1 121625Z 03005KT 08/M03 A3044 RMK A01 T00821025  RH  047%=      5-min Rain = 0
KKN1 121630Z 02005KT 08/M03 A3044 RMK A01 T00831025  RH  047%=      5-min Rain = 0
KKN1 121635Z 04002KT 08/M03 A3044 RMK A01 T00841026  RH  047%=      5-min Rain = 0
KKN1 121640Z 04004KT 09/M03 A3044 RMK A01 T00871026  RH  045%=      5-min Rain = 0
KKN1 121645Z 03007KT 09/M03 A3044 RMK A01 T00881028  RH  044%=      5-min Rain = 0
KKN1 121650Z 04006KT 09/M03 A3044 RMK A01 T00861027  RH  045%=      5-min Rain = 0
KKN1 121655Z 04005KT 09/M03 A3044 RMK A01 T00871028  RH  045%=      5-min Rain = 0
KKN1 121700Z 02003G8KT 09/M03 A3044 RMK A01 T00911030  RH  043%=      5-min Rain = 0
KKN1 121705Z 03005KT 09/M03 A3044 RMK A01 T00911030  RH  043%=      5-min Rain = 0
KKN1 121710Z 00005KT 09/M03 A3044 RMK A01 T00941030  RH  042%=      5-min Rain = 0
KKN1 121715Z 35004G9KT 10/M03 A3044 RMK A01 T00961030  RH  041%=      5-min Rain = 0
KKN1 121720Z 02005G10KT 10/M03 A3044 RMK A01 T00991028  RH  041%=      5-min Rain = 0
KKN1 121725Z 00006G11KT 10/M03 A3043 RMK A01 T01041032  RH  039%=      5-min Rain = 0
KKN1 121730Z 35007KT 10/M04 A3043 RMK A01 T01031037  RH  038%=      5-min Rain = 0
KKN1 121735Z 01007KT 11/M04 A3043 RMK A01 T01051035  RH  038%=      5-min Rain = 0
KKN1 121740Z 03006KT 11/M04 A3043 RMK A01 T01071035  RH  037%=      5-min Rain = 0
KKN1 121745Z 03007KT 11/M03 A3042 RMK A01 T01051034  RH  038%=      5-min Rain = 0
KKN1 121750Z 02007KT 11/M03 A3042 RMK A01 T01061034  RH  038%=      5-min Rain = 0
KKN1 121755Z 35003G8KT 11/M04 A3042 RMK A01 T01061035  RH  037%=      5-min Rain = 0
KKN1 121800Z 05005G10KT 11/M04 A3041 RMK A01 T01071036  RH  037%=      5-min Rain = 0
KKN1 121805Z 02007KT 11/M04 A3041 RMK A01 T01091042  RH  035%=      5-min Rain = 0
KKN1 121810Z 00005KT 11/M04 A3041 RMK A01 T01121043  RH  034%=      5-min Rain = 0
KKN1 121815Z 03006KT 11/M04 A304 RMK A01 T01141042  RH  034%=      5-min Rain = 0
KKN1 121820Z 01004KT 11/M04 A304 RMK A01 T01131043  RH  034%=      5-min Rain = 0
KKN1 121825Z 36006KT 11/M04 A3039 RMK A01 T01141044  RH  033%=      5-min Rain = 0
KKN1 121830Z 01002KT 11/M04 A3039 RMK A01 T01141041  RH  034%=      5-min Rain = 0
KKN1 121835Z 01006G11KT 12/M04 A3039 RMK A01 T01181040  RH  033%=      5-min Rain = 0
KKN1 121840Z 00007G13KT 12/M04 A3039 RMK A01 T01191041  RH  033%=      5-min Rain = 0
KKN1 121845Z 02003G10KT 12/M04 A3038 RMK A01 T01231039  RH  032%=      5-min Rain = 0
KKN1 121850Z 05005G10KT 12/M04 A3038 RMK A01 T01211042  RH  032%=      5-min Rain = 0
KKN1 121855Z 02004G10KT 12/M04 A3038 RMK A01 T01231040  RH  032%=      5-min Rain = 0
KKN1 121900Z 34004G9KT 13/M04 A3037 RMK A01 T01311039  RH  031%=      5-min Rain = 0
KKN1 121905Z 03006KT 13/M04 A3037 RMK A01 T01301042  RH  030%=      5-min Rain = 0
KKN1 121910Z 02005KT 13/M04 A3036 RMK A01 T01271043  RH  031%=      5-min Rain = 0
KKN1 121915Z 36005KT 13/M04 A3036 RMK A01 T01301042  RH  030%=      5-min Rain = 0
KKN1 121920Z 03003KT 13/M04 A3035 RMK A01 T01311041  RH  030%=      5-min Rain = 0
KKN1 121925Z 06007KT 13/M04 A3035 RMK A01 T01331041  RH  030%=      5-min Rain = 0
KKN1 121930Z 08007KT 14/M04 A3035 RMK A01 T01351043  RH  029%=      5-min Rain = 0
KKN1 121935Z 09004KT 13/M04 A3035 RMK A01 T01321044  RH  030%=      5-min Rain = 0
KKN1 121940Z 06002KT 14/M04 A3034 RMK A01 T01361042  RH  029%=      5-min Rain = 0
KKN1 121945Z 07005KT 14/M04 A3034 RMK A01 T01371042  RH  029%=      5-min Rain = 0
KKN1 121950Z 06006KT 14/M05 A3034 RMK A01 T01351045  RH  029%=      5-min Rain = 0
KKN1 121955Z 06004KT 14/M05 A3034 RMK A01 T01351045  RH  029%=      5-min Rain = 0
KKN1 122000Z 02004G9KT 14/M04 A3033 RMK A01 T01361044  RH  029%=      5-min Rain = 0
KKN1 122005Z 05006G11KT 14/M05 A3033 RMK A01 T01381046  RH  028%=      5-min Rain = 0
KKN1 122010Z 05003KT 14/M05 A3033 RMK A01 T01381047  RH  028%=      5-min Rain = 0
KKN1 122015Z 01004KT 14/M05 A3033 RMK A01 T01431046  RH  027%=      5-min Rain = 0
KKN1 122020Z 07004KT 14/M05 A3032 RMK A01 T01441048  RH  026%=      5-min Rain = 0
KKN1 122025Z 35005G11KT 14/M05 A3032 RMK A01 T01441049  RH  026%=      5-min Rain = 0
KKN1 122030Z 04002G7KT 15/M05 A3032 RMK A01 T01471047  RH  026%=      5-min Rain = 0
KKN1 122035Z 03006KT 15/M05 A3031 RMK A01 T01471049  RH  026%=      5-min Rain = 0
KKN1 122040Z 03006KT 15/M05 A3031 RMK A01 T01471048  RH  026%=      5-min Rain = 0
KKN1 122045Z 04003KT 15/M05 A3031 RMK A01 T01461051  RH  026%=      5-min Rain = 0
KKN1 122050Z 08001KT 15/M05 A3031 RMK A01 T01471050  RH  026%=      5-min Rain = 0
KKN1 122055Z 06005G10KT 15/M05 A3031 RMK A01 T01501048  RH  025%=      5-min Rain = 0
KKN1 122100Z 09004KT 15/M05 A3031 RMK A01 T01481049  RH  026%=      5-min Rain = 0
KKN1 122105Z 09003G8KT 15/M05 A303 RMK A01 T01471050  RH  026%=      5-min Rain = 0
KKN1 122110Z 09007KT 15/M05 A303 RMK A01 T01501050  RH  025%=      5-min Rain = 0
KKN1 122115Z 04007KT 15/M05 A303 RMK A01 T01541048  RH  025%=      5-min Rain = 0
KKN1 122120Z 06007G13KT 16/M05 A303 RMK A01 T01551049  RH  024%=      5-min Rain = 0
KKN1 122125Z 05007G12KT 15/M05 A3029 RMK A01 T01521051  RH  025%=      5-min Rain = 0
KKN1 122130Z 04003G9KT 15/M05 A3029 RMK A01 T01501051  RH  025%=      5-min Rain = 0
KKN1 122135Z 07003KT 15/M05 A3028 RMK A01 T01531051  RH  024%=      5-min Rain = 0
KKN1 122140Z 05007KT 16/M05 A3028 RMK A01 T01561052  RH  024%=      5-min Rain = 0
KKN1 122145Z 03004KT 15/M05 A3028 RMK A01 T01521053  RH  024%=      5-min Rain = 0
KKN1 122150Z 07004G9KT 16/M05 A3028 RMK A01 T01561053  RH  023%=      5-min Rain = 0
KKN1 122155Z 07006KT 15/M05 A3028 RMK A01 T01541054  RH  024%=      5-min Rain = 0
KKN1 122200Z 06006G11KT 16/M06 A3028 RMK A01 T01561055  RH  023%=      5-min Rain = 0
KKN1 122205Z 09005KT 15/M06 A3027 RMK A01 T01511056  RH  024%=      5-min Rain = 0
KKN1 122210Z 09004KT 15/M06 A3027 RMK A01 T01511055  RH  024%=      5-min Rain = 0
KKN1 122215Z 11002G8KT 16/M06 A3027 RMK A01 T01561055  RH  023%=      5-min Rain = 0
KKN1 122220Z 08003G9KT 16/M06 A3027 RMK A01 T01551057  RH  023%=      5-min Rain = 0
KKN1 122225Z 02006KT 15/M06 A3026 RMK A01 T01541058  RH  023%=      5-min Rain = 0
KKN1 122230Z 06005KT 15/M06 A3026 RMK A01 T01541058  RH  023%=      5-min Rain = 0
KKN1 122235Z 08004KT 15/M06 A3026 RMK A01 T01541058  RH  023%=      5-min Rain = 0
KKN1 122240Z 15003KT 15/M06 A3026 RMK A01 T01541057  RH  023%=      5-min Rain = 0
KKN1 122245Z 03004KT 15/M06 A3026 RMK A01 T01531059  RH  023%=      5-min Rain = 0
KKN1 122250Z 35003KT 15/M06 A3026 RMK A01 T01531058  RH  023%=      5-min Rain = 0
KKN1 122255Z 10004G10KT 15/M06 A3025 RMK A01 T01541057  RH  023%=      5-min Rain = 0
KKN1 122300Z 09007KT 15/M05 A3025 RMK A01 T01521054  RH  024%=      5-min Rain = 0
KKN1 122305Z 10005KT 15/M05 A3025 RMK A01 T01511054  RH  024%=      5-min Rain = 0
KKN1 122310Z 07003KT 15/M06 A3025 RMK A01 T01511055  RH  024%=      5-min Rain = 0
KKN1 122315Z 09003KT 15/M06 A3024 RMK A01 T01511055  RH  024%=      5-min Rain = 0
KKN1 122320Z 07005KT 15/M06 A3024 RMK A01 T01521056  RH  024%=      5-min Rain = 0
KKN1 122325Z 11004KT 15/M06 A3024 RMK A01 T01521057  RH  023%=      5-min Rain = 0
KKN1 122330Z 10005KT 15/M06 A3024 RMK A01 T01501059  RH  024%=      5-min Rain = 0
KKN1 122335Z 10006KT 15/M06 A3024 RMK A01 T01491057  RH  024%=      5-min Rain = 0
KKN1 122340Z 08005KT 15/M06 A3024 RMK A01 T01491060  RH  023%=      5-min Rain = 0
KKN1 122345Z 10005KT 15/M06 A3024 RMK A01 T01471059  RH  024%=      5-min Rain = 0
KKN1 122350Z 07005KT 15/M06 A3024 RMK A01 T01471061  RH  023%=      5-min Rain = 0
KKN1 122355Z 06004KT 15/M06 A3024 RMK A01 T01451060  RH  024%=      5-min Rain = 0
KKN1 130000Z 11004KT 15/M06 A3024 RMK A01 T01451056  RH  025%=      5-min Rain = 0
KKN1 130005Z 10006KT 14/M06 A3024 RMK A01 T01431057  RH  025%=      5-min Rain = 0
KKN1 130010Z 11005KT 14/M05 A3024 RMK A01 T01401052  RH  026%=      5-min Rain = 0
KKN1 130015Z 10006KT 14/M05 A3024 RMK A01 T01361052  RH  027%=      5-min Rain = 0
KKN1 130020Z 11005KT 13/M05 A3024 RMK A01 T01321050  RH  028%=      5-min Rain = 0
KKN1 130025Z 11005KT 13/M05 A3024 RMK A01 T01311050  RH  028%=      5-min Rain = 0
KKN1 130030Z 12005KT 13/M05 A3024 RMK A01 T01291051  RH  029%=      5-min Rain = 0
KKN1 130035Z 11006KT 13/M05 A3024 RMK A01 T01261052  RH  029%=      5-min Rain = 0
KKN1 130040Z 11005KT 12/M05 A3025 RMK A01 T01231053  RH  029%=      5-min Rain = 0
KKN1 130045Z 10005KT 12/M05 A3025 RMK A01 T01181052  RH  030%=      5-min Rain = 0
KKN1 130050Z 10005KT 11/M05 A3025 RMK A01 T01141054  RH  031%=      5-min Rain = 0
KKN1 130055Z 11005KT 11/M06 A3025 RMK A01 T01101055  RH  031%=      5-min Rain = 0
KKN1 130100Z 10005KT 10/M06 A3025 RMK A01 T01041055  RH  033%=      5-min Rain = 0
KKN1 130105Z 11005KT 10/M06 A3025 RMK A01 T01031057  RH  032%=      5-min Rain = 0
KKN1 130110Z 11006KT 10/M06 A3025 RMK A01 T00971059  RH  033%=      5-min Rain = 0
KKN1 130115Z 11006KT 09/M06 A3025 RMK A01 T00911059  RH  034%=      5-min Rain = 0
KKN1 130120Z 10006KT 09/M06 A3025 RMK A01 T00871058  RH  036%=      5-min Rain = 0
KKN1 130125Z 10005KT 09/M06 A3025 RMK A01 T00851056  RH  037%=      5-min Rain = 0
KKN1 130130Z 10005KT 09/M06 A3025 RMK A01 T00861056  RH  037%=      5-min Rain = 0
KKN1 130135Z 10005KT 09/M06 A3025 RMK A01 T00921056  RH  035%=      5-min Rain = 0
KKN1 130140Z 10005KT 09/M06 A3025 RMK A01 T00931057  RH  034%=      5-min Rain = 0
KKN1 130145Z 10007KT 08/M06 A3025 RMK A01 T00831058  RH  037%=      5-min Rain = 0
KKN1 130150Z 10007KT 08/M05 A3025 RMK A01 T00841053  RH  038%=      5-min Rain = 0
KKN1 130155Z 10007KT 09/M05 A3026 RMK A01 T00881051  RH  037%=      5-min Rain = 0
KKN1 130200Z 09007KT 09/M05 A3026 RMK A01 T00901048  RH  038%=      5-min Rain = 0
KKN1 130205Z 10007KT 09/M05 A3026 RMK A01 T00881048  RH  038%=      5-min Rain = 0
KKN1 130210Z 10007KT 09/M05 A3026 RMK A01 T00851047  RH  039%=      5-min Rain = 0
KKN1 130215Z 10007KT 08/M05 A3026 RMK A01 T00831046  RH  040%=      5-min Rain = 0
KKN1 130220Z 11006KT 08/M05 A3027 RMK A01 T00811047  RH  040%=      5-min Rain = 0
KKN1 130225Z 11006KT 08/M05 A3027 RMK A01 T00791049  RH  040%=      5-min Rain = 0
KKN1 130230Z 11006KT 08/M05 A3027 RMK A01 T00771051  RH  040%=      5-min Rain = 0
KKN1 130235Z 10007KT 08/M05 A3027 RMK A01 T00751050  RH  041%=      5-min Rain = 0
KKN1 130240Z 10007KT 07/M05 A3027 RMK A01 T00731050  RH  042%=      5-min Rain = 0
KKN1 130245Z 10007KT 07/M05 A3027 RMK A01 T00741050  RH  042%=      5-min Rain = 0
KKN1 130250Z 10006KT 07/M05 A3027 RMK A01 T00741051  RH  041%=      5-min Rain = 0
KKN1 130255Z 10006KT 07/M05 A3027 RMK A01 T00721051  RH  042%=      5-min Rain = 0
KKN1 130300Z 09006KT 08/M05 A3027 RMK A01 T00751051  RH  041%=      5-min Rain = 0
KKN1 130305Z 09006KT 08/M05 A3027 RMK A01 T00771052  RH  040%=      5-min Rain = 0
KKN1 130310Z 10006KT 07/M05 A3027 RMK A01 T00741052  RH  041%=      5-min Rain = 0
KKN1 130315Z 10006KT 07/M05 A3027 RMK A01 T00701051  RH  042%=      5-min Rain = 0
KKN1 130320Z 10006KT 07/M05 A3027 RMK A01 T00661051  RH  043%=      5-min Rain = 0
KKN1 130325Z 10006KT 07/M05 A3027 RMK A01 T00661052  RH  043%=      5-min Rain = 0
KKN1 130330Z 10006KT 07/M05 A3027 RMK A01 T00661053  RH  043%=      5-min Rain = 0
KKN1 130335Z 10006KT 07/M05 A3027 RMK A01 T00671054  RH  042%=      5-min Rain = 0
KKN1 130340Z 10006KT 07/M05 A3027 RMK A01 T00661054  RH  042%=      5-min Rain = 0
KKN1 130345Z 10007KT 06/M05 A3027 RMK A01 T00641054  RH  043%=      5-min Rain = 0
KKN1 130350Z 11006KT 06/M05 A3027 RMK A01 T00641053  RH  044%=      5-min Rain = 0
KKN1 130355Z 11006KT 07/M05 A3027 RMK A01 T00651053  RH  043%=      5-min Rain = 0
KKN1 130400Z 11007KT 06/M05 A3027 RMK A01 T00621054  RH  044%=      5-min Rain = 0
KKN1 130405Z 11008KT 06/M05 A3027 RMK A01 T00631052  RH  044%=      5-min Rain = 0
KKN1 130410Z 11008KT 07/M05 A3027 RMK A01 T00691052  RH  042%=      5-min Rain = 0
KKN1 130415Z 12008KT 07/M05 A3027 RMK A01 T00731053  RH  041%=      5-min Rain = 0
KKN1 130420Z 13006KT 07/M05 A3027 RMK A01 T00721053  RH  041%=      5-min Rain = 0
KKN1 130425Z 13006KT 07/M05 A3027 RMK A01 T00661052  RH  043%=      5-min Rain = 0
KKN1 130430Z 13006KT 06/M05 A3027 RMK A01 T00581050  RH  046%=      5-min Rain = 0
KKN1 130435Z 13006KT 05/M05 A3027 RMK A01 T00531050  RH  048%=      5-min Rain = 0
KKN1 130440Z 13007KT 05/M05 A3027 RMK A01 T00511049  RH  049%=      5-min Rain = 0
KKN1 130445Z 12007KT 05/M05 A3027 RMK A01 T00491050  RH  050%=      5-min Rain = 0
KKN1 130450Z 12006KT 05/M05 A3027 RMK A01 T00471049  RH  050%=      5-min Rain = 0
KKN1 130455Z 13005KT 05/M05 A3027 RMK A01 T00471048  RH  051%=      5-min Rain = 0

Page generated in 0.039 seconds.